sensor_id;sensor_type;location;lat;lon;timestamp;P1;durP1;ratioP1;P2;durP2;ratioP2
16731;SDS011;8484;50.904;9.192;2022-07-12T00:00:24;0.80;;;0.80;;
16731;SDS011;8484;50.904;9.192;2022-07-12T00:02:53;1.77;;;0.90;;
16731;SDS011;8484;50.904;9.192;2022-07-12T00:05:19;1.27;;;0.77;;
16731;SDS011;8484;50.904;9.192;2022-07-12T00:07:46;0.80;;;0.80;;
16731;SDS011;8484;50.904;9.192;2022-07-12T00:10:13;0.90;;;0.90;;
16731;SDS011;8484;50.904;9.192;2022-07-12T00:12:40;1.00;;;1.00;;
16731;SDS011;8484;50.904;9.192;2022-07-12T00:15:07;1.20;;;1.10;;
16731;SDS011;8484;50.904;9.192;2022-07-12T00:17:35;1.20;;;1.10;;
16731;SDS011;8484;50.904;9.192;2022-07-12T00:20:05;1.37;;;1.23;;
16731;SDS011;8484;50.904;9.192;2022-07-12T00:22:33;1.30;;;1.20;;
16731;SDS011;8484;50.904;9.192;2022-07-12T00:25:00;1.80;;;1.20;;
16731;SDS011;8484;50.904;9.192;2022-07-12T00:27:27;2.37;;;1.30;;
16731;SDS011;8484;50.904;9.192;2022-07-12T00:29:54;1.20;;;1.10;;
16731;SDS011;8484;50.904;9.192;2022-07-12T00:32:21;1.40;;;1.13;;
16731;SDS011;8484;50.904;9.192;2022-07-12T00:34:48;1.10;;;1.10;;
16731;SDS011;8484;50.904;9.192;2022-07-12T00:37:16;1.40;;;1.30;;
16731;SDS011;8484;50.904;9.192;2022-07-12T00:39:43;1.03;;;1.03;;
16731;SDS011;8484;50.904;9.192;2022-07-12T00:42:09;1.40;;;1.30;;
16731;SDS011;8484;50.904;9.192;2022-07-12T00:44:36;1.23;;;1.13;;
16731;SDS011;8484;50.904;9.192;2022-07-12T00:47:03;1.23;;;1.07;;
16731;SDS011;8484;50.904;9.192;2022-07-12T00:49:31;1.07;;;0.97;;
16731;SDS011;8484;50.904;9.192;2022-07-12T00:51:58;1.00;;;1.00;;
16731;SDS011;8484;50.904;9.192;2022-07-12T00:54:27;1.23;;;0.93;;
16731;SDS011;8484;50.904;9.192;2022-07-12T00:56:57;3.00;;;1.07;;
16731;SDS011;8484;50.904;9.192;2022-07-12T00:59:24;0.90;;;0.90;;
16731;SDS011;8484;50.904;9.192;2022-07-12T01:01:51;0.87;;;0.80;;
16731;SDS011;8484;50.904;9.192;2022-07-12T01:04:18;1.77;;;0.80;;
16731;SDS011;8484;50.904;9.192;2022-07-12T01:06:45;1.37;;;0.80;;
16731;SDS011;8484;50.904;9.192;2022-07-12T01:09:12;1.13;;;1.03;;
16731;SDS011;8484;50.904;9.192;2022-07-12T01:11:40;1.27;;;0.80;;
16731;SDS011;8484;50.904;9.192;2022-07-12T01:14:08;0.90;;;0.80;;
16731;SDS011;8484;50.904;9.192;2022-07-12T01:16:36;0.80;;;0.80;;
16731;SDS011;8484;50.904;9.192;2022-07-12T01:19:03;1.23;;;0.80;;
16731;SDS011;8484;50.904;9.192;2022-07-12T01:21:34;0.70;;;0.70;;
16731;SDS011;8484;50.904;9.192;2022-07-12T01:24:05;1.17;;;0.80;;
16731;SDS011;8484;50.904;9.192;2022-07-12T01:26:34;0.87;;;0.77;;
16731;SDS011;8484;50.904;9.192;2022-07-12T01:29:02;1.00;;;0.70;;
16731;SDS011;8484;50.904;9.192;2022-07-12T01:31:29;0.60;;;0.60;;
16731;SDS011;8484;50.904;9.192;2022-07-12T01:33:56;1.00;;;0.90;;
16731;SDS011;8484;50.904;9.192;2022-07-12T01:36:23;0.63;;;0.63;;
16731;SDS011;8484;50.904;9.192;2022-07-12T01:38:50;0.77;;;0.77;;
16731;SDS011;8484;50.904;9.192;2022-07-12T01:41:19;0.70;;;0.70;;
16731;SDS011;8484;50.904;9.192;2022-07-12T01:43:47;2.83;;;0.83;;
16731;SDS011;8484;50.904;9.192;2022-07-12T01:46:14;0.93;;;0.80;;
16731;SDS011;8484;50.904;9.192;2022-07-12T01:48:40;0.77;;;0.77;;
16731;SDS011;8484;50.904;9.192;2022-07-12T01:51:07;0.80;;;0.80;;
16731;SDS011;8484;50.904;9.192;2022-07-12T01:53:34;1.43;;;0.90;;
16731;SDS011;8484;50.904;9.192;2022-07-12T01:56:02;0.90;;;0.90;;
16731;SDS011;8484;50.904;9.192;2022-07-12T01:58:31;0.77;;;0.77;;
16731;SDS011;8484;50.904;9.192;2022-07-12T02:00:58;0.97;;;0.90;;
16731;SDS011;8484;50.904;9.192;2022-07-12T02:03:25;0.80;;;0.80;;
16731;SDS011;8484;50.904;9.192;2022-07-12T02:05:52;1.10;;;1.00;;
16731;SDS011;8484;50.904;9.192;2022-07-12T02:08:19;1.07;;;0.97;;
16731;SDS011;8484;50.904;9.192;2022-07-12T02:10:46;0.90;;;0.90;;
16731;SDS011;8484;50.904;9.192;2022-07-12T02:13:12;1.10;;;1.00;;
16731;SDS011;8484;50.904;9.192;2022-07-12T02:15:40;1.40;;;0.80;;
16731;SDS011;8484;50.904;9.192;2022-07-12T02:18:07;3.17;;;1.10;;
16731;SDS011;8484;50.904;9.192;2022-07-12T02:20:34;1.10;;;1.00;;
16731;SDS011;8484;50.904;9.192;2022-07-12T02:23:01;1.17;;;1.07;;
16731;SDS011;8484;50.904;9.192;2022-07-12T02:25:28;1.60;;;1.00;;
16731;SDS011;8484;50.904;9.192;2022-07-12T02:27:54;2.17;;;1.30;;
16731;SDS011;8484;50.904;9.192;2022-07-12T02:30:21;1.77;;;1.20;;
16731;SDS011;8484;50.904;9.192;2022-07-12T02:32:50;1.10;;;1.00;;
16731;SDS011;8484;50.904;9.192;2022-07-12T02:35:17;1.17;;;0.90;;
16731;SDS011;8484;50.904;9.192;2022-07-12T02:37:44;1.07;;;1.00;;
16731;SDS011;8484;50.904;9.192;2022-07-12T02:40:11;1.33;;;1.23;;
16731;SDS011;8484;50.904;9.192;2022-07-12T02:42:55;1.73;;;1.07;;
16731;SDS011;8484;50.904;9.192;2022-07-12T02:45:22;1.00;;;1.00;;
16731;SDS011;8484;50.904;9.192;2022-07-12T02:47:50;0.93;;;0.93;;
16731;SDS011;8484;50.904;9.192;2022-07-12T02:50:17;1.00;;;0.90;;
16731;SDS011;8484;50.904;9.192;2022-07-12T02:52:44;1.00;;;1.00;;
16731;SDS011;8484;50.904;9.192;2022-07-12T02:55:11;1.27;;;1.17;;
16731;SDS011;8484;50.904;9.192;2022-07-12T02:57:37;1.40;;;1.10;;
16731;SDS011;8484;50.904;9.192;2022-07-12T03:00:04;1.20;;;1.10;;
16731;SDS011;8484;50.904;9.192;2022-07-12T03:02:33;1.33;;;1.20;;
16731;SDS011;8484;50.904;9.192;2022-07-12T03:05:01;1.00;;;1.00;;
16731;SDS011;8484;50.904;9.192;2022-07-12T03:07:35;1.30;;;1.17;;
16731;SDS011;8484;50.904;9.192;2022-07-12T03:10:15;3.03;;;1.20;;
16731;SDS011;8484;50.904;9.192;2022-07-12T03:12:42;1.40;;;1.10;;
16731;SDS011;8484;50.904;9.192;2022-07-12T03:15:09;1.13;;;1.13;;
16731;SDS011;8484;50.904;9.192;2022-07-12T03:17:37;1.43;;;1.33;;
16731;SDS011;8484;50.904;9.192;2022-07-12T03:20:06;1.30;;;1.20;;
16731;SDS011;8484;50.904;9.192;2022-07-12T03:22:36;1.47;;;1.37;;
16731;SDS011;8484;50.904;9.192;2022-07-12T03:25:03;1.47;;;1.37;;
16731;SDS011;8484;50.904;9.192;2022-07-12T03:27:31;1.73;;;1.63;;
16731;SDS011;8484;50.904;9.192;2022-07-12T03:29:58;1.40;;;1.30;;
16731;SDS011;8484;50.904;9.192;2022-07-12T03:32:25;1.60;;;1.47;;
16731;SDS011;8484;50.904;9.192;2022-07-12T03:34:52;1.30;;;1.20;;
16731;SDS011;8484;50.904;9.192;2022-07-12T03:37:22;1.30;;;1.20;;
16731;SDS011;8484;50.904;9.192;2022-07-12T03:39:49;1.60;;;1.20;;
16731;SDS011;8484;50.904;9.192;2022-07-12T03:42:16;1.83;;;1.33;;
16731;SDS011;8484;50.904;9.192;2022-07-12T03:44:42;2.60;;;1.40;;
16731;SDS011;8484;50.904;9.192;2022-07-12T03:47:09;1.40;;;1.30;;
16731;SDS011;8484;50.904;9.192;2022-07-12T03:49:37;1.73;;;1.50;;
16731;SDS011;8484;50.904;9.192;2022-07-12T03:52:03;1.70;;;1.60;;
16731;SDS011;8484;50.904;9.192;2022-07-12T03:54:33;1.50;;;1.40;;
16731;SDS011;8484;50.904;9.192;2022-07-12T03:57:07;4.50;;;1.60;;
16731;SDS011;8484;50.904;9.192;2022-07-12T03:59:43;1.70;;;1.60;;
16731;SDS011;8484;50.904;9.192;2022-07-12T04:02:11;10.67;;;2.27;;
16731;SDS011;8484;50.904;9.192;2022-07-12T04:04:38;8.43;;;2.20;;
16731;SDS011;8484;50.904;9.192;2022-07-12T04:07:06;23.60;;;2.93;;
16731;SDS011;8484;50.904;9.192;2022-07-12T04:09:34;13.40;;;2.60;;
16731;SDS011;8484;50.904;9.192;2022-07-12T04:12:01;7.73;;;2.20;;
16731;SDS011;8484;50.904;9.192;2022-07-12T04:14:29;1.77;;;1.67;;
16731;SDS011;8484;50.904;9.192;2022-07-12T04:16:56;1.90;;;1.80;;
16731;SDS011;8484;50.904;9.192;2022-07-12T04:19:23;1.83;;;1.73;;
16731;SDS011;8484;50.904;9.192;2022-07-12T04:21:53;2.73;;;2.00;;
16731;SDS011;8484;50.904;9.192;2022-07-12T04:24:27;2.20;;;2.00;;
16731;SDS011;8484;50.904;9.192;2022-07-12T04:26:55;1.93;;;1.70;;
16731;SDS011;8484;50.904;9.192;2022-07-12T04:29:22;5.57;;;2.23;;
16731;SDS011;8484;50.904;9.192;2022-07-12T04:31:48;13.90;;;2.63;;
16731;SDS011;8484;50.904;9.192;2022-07-12T04:34:15;9.53;;;2.50;;
16731;SDS011;8484;50.904;9.192;2022-07-12T04:36:43;10.10;;;2.40;;
16731;SDS011;8484;50.904;9.192;2022-07-12T04:39:10;10.10;;;2.60;;
16731;SDS011;8484;50.904;9.192;2022-07-12T04:41:36;15.00;;;3.80;;
16731;SDS011;8484;50.904;9.192;2022-07-12T04:44:11;15.77;;;2.97;;
16731;SDS011;8484;50.904;9.192;2022-07-12T04:46:38;19.40;;;3.27;;
16731;SDS011;8484;50.904;9.192;2022-07-12T04:49:04;18.50;;;3.07;;
16731;SDS011;8484;50.904;9.192;2022-07-12T04:51:32;14.33;;;3.13;;
16731;SDS011;8484;50.904;9.192;2022-07-12T04:53:58;6.10;;;3.20;;
16731;SDS011;8484;50.904;9.192;2022-07-12T04:56:25;5.17;;;2.40;;
16731;SDS011;8484;50.904;9.192;2022-07-12T04:58:52;2.17;;;1.93;;
16731;SDS011;8484;50.904;9.192;2022-07-12T05:01:20;1.67;;;1.50;;
16731;SDS011;8484;50.904;9.192;2022-07-12T05:03:47;5.03;;;1.43;;
16731;SDS011;8484;50.904;9.192;2022-07-12T05:06:14;5.67;;;1.57;;
16731;SDS011;8484;50.904;9.192;2022-07-12T05:08:41;6.87;;;1.70;;
16731;SDS011;8484;50.904;9.192;2022-07-12T05:11:07;2.00;;;1.40;;
16731;SDS011;8484;50.904;9.192;2022-07-12T05:13:34;6.20;;;1.70;;
16731;SDS011;8484;50.904;9.192;2022-07-12T05:16:01;1.77;;;1.50;;
16731;SDS011;8484;50.904;9.192;2022-07-12T05:18:29;1.90;;;1.50;;
16731;SDS011;8484;50.904;9.192;2022-07-12T05:20:56;7.30;;;1.37;;
16731;SDS011;8484;50.904;9.192;2022-07-12T05:23:23;11.20;;;1.70;;
16731;SDS011;8484;50.904;9.192;2022-07-12T05:25:50;5.70;;;1.93;;
16731;SDS011;8484;50.904;9.192;2022-07-12T05:28:17;12.17;;;1.87;;
16731;SDS011;8484;50.904;9.192;2022-07-12T05:30:44;7.80;;;2.20;;
16731;SDS011;8484;50.904;9.192;2022-07-12T05:33:11;3.03;;;1.23;;
16731;SDS011;8484;50.904;9.192;2022-07-12T05:35:39;1.47;;;1.33;;
16731;SDS011;8484;50.904;9.192;2022-07-12T05:38:06;2.93;;;1.40;;
16731;SDS011;8484;50.904;9.192;2022-07-12T05:40:33;1.10;;;1.10;;
16731;SDS011;8484;50.904;9.192;2022-07-12T05:43:00;1.10;;;1.00;;
16731;SDS011;8484;50.904;9.192;2022-07-12T05:45:27;2.13;;;1.00;;
16731;SDS011;8484;50.904;9.192;2022-07-12T05:47:53;1.37;;;0.93;;
16731;SDS011;8484;50.904;9.192;2022-07-12T05:50:20;1.17;;;1.07;;
16731;SDS011;8484;50.904;9.192;2022-07-12T05:52:48;1.00;;;1.00;;
16731;SDS011;8484;50.904;9.192;2022-07-12T05:55:33;1.90;;;1.00;;
16731;SDS011;8484;50.904;9.192;2022-07-12T05:58:00;1.80;;;1.30;;
16731;SDS011;8484;50.904;9.192;2022-07-12T06:00:27;3.47;;;1.20;;
16731;SDS011;8484;50.904;9.192;2022-07-12T06:02:54;1.40;;;1.30;;
16731;SDS011;8484;50.904;9.192;2022-07-12T06:05:21;1.67;;;1.30;;
16731;SDS011;8484;50.904;9.192;2022-07-12T06:07:49;1.83;;;1.60;;
16731;SDS011;8484;50.904;9.192;2022-07-12T06:10:16;1.80;;;1.70;;
16731;SDS011;8484;50.904;9.192;2022-07-12T06:12:42;1.47;;;1.37;;
16731;SDS011;8484;50.904;9.192;2022-07-12T06:15:09;1.50;;;1.40;;
16731;SDS011;8484;50.904;9.192;2022-07-12T06:17:36;1.20;;;1.20;;
16731;SDS011;8484;50.904;9.192;2022-07-12T06:20:03;1.43;;;1.33;;
16731;SDS011;8484;50.904;9.192;2022-07-12T06:22:31;1.40;;;1.30;;
16731;SDS011;8484;50.904;9.192;2022-07-12T06:24:59;1.30;;;1.20;;
16731;SDS011;8484;50.904;9.192;2022-07-12T06:27:26;1.37;;;1.27;;
16731;SDS011;8484;50.904;9.192;2022-07-12T06:29:52;2.77;;;1.50;;
16731;SDS011;8484;50.904;9.192;2022-07-12T06:32:19;1.40;;;1.30;;
16731;SDS011;8484;50.904;9.192;2022-07-12T06:34:46;1.50;;;1.40;;
16731;SDS011;8484;50.904;9.192;2022-07-12T06:37:20;1.23;;;1.13;;
16731;SDS011;8484;50.904;9.192;2022-07-12T06:39:47;1.83;;;1.47;;
16731;SDS011;8484;50.904;9.192;2022-07-12T06:42:15;1.33;;;1.27;;
16731;SDS011;8484;50.904;9.192;2022-07-12T06:44:42;1.20;;;1.13;;
16731;SDS011;8484;50.904;9.192;2022-07-12T06:47:09;1.60;;;1.30;;
16731;SDS011;8484;50.904;9.192;2022-07-12T06:49:36;1.40;;;1.30;;
16731;SDS011;8484;50.904;9.192;2022-07-12T06:52:03;2.03;;;1.40;;
16731;SDS011;8484;50.904;9.192;2022-07-12T06:54:30;1.50;;;1.40;;
16731;SDS011;8484;50.904;9.192;2022-07-12T06:56:57;1.53;;;1.40;;
16731;SDS011;8484;50.904;9.192;2022-07-12T06:59:25;1.53;;;1.23;;
16731;SDS011;8484;50.904;9.192;2022-07-12T07:01:52;1.50;;;1.40;;
16731;SDS011;8484;50.904;9.192;2022-07-12T07:04:20;1.43;;;1.33;;
16731;SDS011;8484;50.904;9.192;2022-07-12T07:06:47;1.10;;;1.10;;
16731;SDS011;8484;50.904;9.192;2022-07-12T07:09:14;1.93;;;1.13;;
16731;SDS011;8484;50.904;9.192;2022-07-12T07:11:41;1.33;;;1.23;;
16731;SDS011;8484;50.904;9.192;2022-07-12T07:14:08;1.43;;;1.20;;
16731;SDS011;8484;50.904;9.192;2022-07-12T07:16:37;1.53;;;1.20;;
16731;SDS011;8484;50.904;9.192;2022-07-12T07:19:04;1.57;;;1.30;;
16731;SDS011;8484;50.904;9.192;2022-07-12T07:21:32;1.53;;;1.00;;
16731;SDS011;8484;50.904;9.192;2022-07-12T07:23:58;1.10;;;1.00;;
16731;SDS011;8484;50.904;9.192;2022-07-12T07:26:25;0.90;;;0.90;;
16731;SDS011;8484;50.904;9.192;2022-07-12T07:28:52;1.27;;;0.90;;
16731;SDS011;8484;50.904;9.192;2022-07-12T07:31:37;0.80;;;0.80;;
16731;SDS011;8484;50.904;9.192;2022-07-12T07:34:04;0.70;;;0.70;;
16731;SDS011;8484;50.904;9.192;2022-07-12T07:36:32;1.10;;;0.70;;
16731;SDS011;8484;50.904;9.192;2022-07-12T07:38:58;1.20;;;0.73;;
16731;SDS011;8484;50.904;9.192;2022-07-12T07:41:25;3.37;;;0.83;;
16731;SDS011;8484;50.904;9.192;2022-07-12T07:43:52;0.93;;;0.80;;
16731;SDS011;8484;50.904;9.192;2022-07-12T07:46:19;1.13;;;0.90;;
16731;SDS011;8484;50.904;9.192;2022-07-12T07:48:47;0.60;;;0.60;;
16731;SDS011;8484;50.904;9.192;2022-07-12T07:51:14;0.63;;;0.60;;
16731;SDS011;8484;50.904;9.192;2022-07-12T07:53:41;1.07;;;0.57;;
16731;SDS011;8484;50.904;9.192;2022-07-12T07:56:07;0.50;;;0.50;;
16731;SDS011;8484;50.904;9.192;2022-07-12T07:58:34;0.83;;;0.67;;
16731;SDS011;8484;50.904;9.192;2022-07-12T08:01:01;0.50;;;0.50;;
16731;SDS011;8484;50.904;9.192;2022-07-12T08:03:28;0.60;;;0.50;;
16731;SDS011;8484;50.904;9.192;2022-07-12T08:05:56;0.40;;;0.40;;
16731;SDS011;8484;50.904;9.192;2022-07-12T08:08:25;0.40;;;0.40;;
16731;SDS011;8484;50.904;9.192;2022-07-12T08:10:53;0.30;;;0.30;;
16731;SDS011;8484;50.904;9.192;2022-07-12T08:13:20;0.20;;;0.20;;
16731;SDS011;8484;50.904;9.192;2022-07-12T08:15:47;0.37;;;0.37;;
16731;SDS011;8484;50.904;9.192;2022-07-12T08:18:14;0.20;;;0.20;;
16731;SDS011;8484;50.904;9.192;2022-07-12T08:20:41;0.20;;;0.20;;
16731;SDS011;8484;50.904;9.192;2022-07-12T08:23:10;0.30;;;0.30;;
16731;SDS011;8484;50.904;9.192;2022-07-12T08:25:43;0.20;;;0.20;;
16731;SDS011;8484;50.904;9.192;2022-07-12T08:28:10;0.20;;;0.20;;
16731;SDS011;8484;50.904;9.192;2022-07-12T08:30:37;0.20;;;0.20;;
16731;SDS011;8484;50.904;9.192;2022-07-12T08:33:03;0.30;;;0.30;;
16731;SDS011;8484;50.904;9.192;2022-07-12T08:35:30;0.60;;;0.30;;
16731;SDS011;8484;50.904;9.192;2022-07-12T08:37:57;0.30;;;0.30;;
16731;SDS011;8484;50.904;9.192;2022-07-12T08:40:25;0.20;;;0.20;;
16731;SDS011;8484;50.904;9.192;2022-07-12T08:42:52;0.67;;;0.30;;
16731;SDS011;8484;50.904;9.192;2022-07-12T08:45:25;0.30;;;0.30;;
16731;SDS011;8484;50.904;9.192;2022-07-12T08:47:52;0.37;;;0.37;;
16731;SDS011;8484;50.904;9.192;2022-07-12T08:50:19;0.90;;;0.30;;
16731;SDS011;8484;50.904;9.192;2022-07-12T08:52:48;0.20;;;0.20;;
16731;SDS011;8484;50.904;9.192;2022-07-12T08:55:17;0.30;;;0.23;;
16731;SDS011;8484;50.904;9.192;2022-07-12T08:57:47;0.40;;;0.37;;
16731;SDS011;8484;50.904;9.192;2022-07-12T09:00:14;0.50;;;0.20;;
16731;SDS011;8484;50.904;9.192;2022-07-12T09:02:48;0.20;;;0.20;;
16731;SDS011;8484;50.904;9.192;2022-07-12T09:05:16;0.30;;;0.30;;
16731;SDS011;8484;50.904;9.192;2022-07-12T09:07:44;0.20;;;0.20;;
16731;SDS011;8484;50.904;9.192;2022-07-12T09:10:11;0.40;;;0.40;;
16731;SDS011;8484;50.904;9.192;2022-07-12T09:12:38;0.90;;;0.30;;
16731;SDS011;8484;50.904;9.192;2022-07-12T09:15:11;0.40;;;0.20;;
16731;SDS011;8484;50.904;9.192;2022-07-12T09:20:27;0.60;;;0.20;;
16731;SDS011;8484;50.904;9.192;2022-07-12T09:22:55;0.40;;;0.30;;
16731;SDS011;8484;50.904;9.192;2022-07-12T09:25:23;1.30;;;0.20;;
16731;SDS011;8484;50.904;9.192;2022-07-12T09:27:51;1.07;;;0.30;;
16731;SDS011;8484;50.904;9.192;2022-07-12T09:30:21;0.30;;;0.30;;
16731;SDS011;8484;50.904;9.192;2022-07-12T09:32:49;0.20;;;0.20;;
16731;SDS011;8484;50.904;9.192;2022-07-12T09:35:37;0.30;;;0.20;;
16731;SDS011;8484;50.904;9.192;2022-07-12T09:38:23;0.23;;;0.23;;
16731;SDS011;8484;50.904;9.192;2022-07-12T09:40:50;0.30;;;0.10;;
16731;SDS011;8484;50.904;9.192;2022-07-12T09:43:18;0.30;;;0.20;;
16731;SDS011;8484;50.904;9.192;2022-07-12T09:45:47;0.10;;;0.10;;
16731;SDS011;8484;50.904;9.192;2022-07-12T09:48:20;0.87;;;0.20;;
16731;SDS011;8484;50.904;9.192;2022-07-12T09:50:49;0.27;;;0.20;;
16731;SDS011;8484;50.904;9.192;2022-07-12T09:53:20;0.10;;;0.10;;
16731;SDS011;8484;50.904;9.192;2022-07-12T09:55:51;0.73;;;0.20;;
16731;SDS011;8484;50.904;9.192;2022-07-12T09:58:21;0.20;;;0.20;;
16731;SDS011;8484;50.904;9.192;2022-07-12T10:00:53;0.30;;;0.10;;
16731;SDS011;8484;50.904;9.192;2022-07-12T10:03:22;1.47;;;0.30;;
16731;SDS011;8484;50.904;9.192;2022-07-12T10:05:52;0.13;;;0.10;;
16731;SDS011;8484;50.904;9.192;2022-07-12T10:08:20;1.17;;;0.20;;
16731;SDS011;8484;50.904;9.192;2022-07-12T10:10:48;0.20;;;0.10;;
16731;SDS011;8484;50.904;9.192;2022-07-12T10:13:16;0.40;;;0.10;;
16731;SDS011;8484;50.904;9.192;2022-07-12T10:15:45;0.10;;;0.10;;
16731;SDS011;8484;50.904;9.192;2022-07-12T10:18:18;0.43;;;0.13;;
16731;SDS011;8484;50.904;9.192;2022-07-12T10:20:46;0.87;;;0.20;;
16731;SDS011;8484;50.904;9.192;2022-07-12T10:23:26;0.10;;;0.10;;
16731;SDS011;8484;50.904;9.192;2022-07-12T10:25:59;0.07;;;0.07;;
16731;SDS011;8484;50.904;9.192;2022-07-12T10:28:54;0.10;;;0.10;;
16731;SDS011;8484;50.904;9.192;2022-07-12T10:31:22;0.10;;;0.10;;
16731;SDS011;8484;50.904;9.192;2022-07-12T10:34:00;0.20;;;0.10;;
16731;SDS011;8484;50.904;9.192;2022-07-12T10:39:35;0.23;;;0.03;;
16731;SDS011;8484;50.904;9.192;2022-07-12T10:42:12;0.10;;;0.10;;
16731;SDS011;8484;50.904;9.192;2022-07-12T10:44:40;0.20;;;0.10;;
16731;SDS011;8484;50.904;9.192;2022-07-12T10:47:09;0.53;;;0.17;;
16731;SDS011;8484;50.904;9.192;2022-07-12T10:49:45;0.30;;;0.10;;
16731;SDS011;8484;50.904;9.192;2022-07-12T10:52:14;0.10;;;0.10;;
16731;SDS011;8484;50.904;9.192;2022-07-12T10:54:46;1.40;;;0.10;;
16731;SDS011;8484;50.904;9.192;2022-07-12T10:57:15;2.37;;;0.10;;
16731;SDS011;8484;50.904;9.192;2022-07-12T10:59:42;0.40;;;0.10;;
16731;SDS011;8484;50.904;9.192;2022-07-12T11:02:16;0.17;;;0.10;;
16731;SDS011;8484;50.904;9.192;2022-07-12T11:04:47;0.20;;;0.20;;
16731;SDS011;8484;50.904;9.192;2022-07-12T11:07:16;1.03;;;0.20;;
16731;SDS011;8484;50.904;9.192;2022-07-12T11:09:43;0.10;;;0.10;;
16731;SDS011;8484;50.904;9.192;2022-07-12T11:12:10;0.37;;;0.00;;
16731;SDS011;8484;50.904;9.192;2022-07-12T11:14:44;0.10;;;0.10;;
16731;SDS011;8484;50.904;9.192;2022-07-12T11:17:12;0.67;;;0.10;;
16731;SDS011;8484;50.904;9.192;2022-07-12T11:19:39;0.10;;;0.10;;
16731;SDS011;8484;50.904;9.192;2022-07-12T11:22:07;0.30;;;0.10;;
16731;SDS011;8484;50.904;9.192;2022-07-12T11:24:34;0.33;;;0.20;;
16731;SDS011;8484;50.904;9.192;2022-07-12T11:27:01;0.50;;;0.10;;
16731;SDS011;8484;50.904;9.192;2022-07-12T11:29:31;0.10;;;0.10;;
16731;SDS011;8484;50.904;9.192;2022-07-12T11:32:01;1.40;;;0.50;;
16731;SDS011;8484;50.904;9.192;2022-07-12T11:34:32;0.47;;;0.23;;
16731;SDS011;8484;50.904;9.192;2022-07-12T11:37:00;0.20;;;0.10;;
16731;SDS011;8484;50.904;9.192;2022-07-12T11:39:32;0.00;;;0.00;;
16731;SDS011;8484;50.904;9.192;2022-07-12T11:42:01;0.20;;;0.10;;
16731;SDS011;8484;50.904;9.192;2022-07-12T11:44:42;0.20;;;0.10;;
16731;SDS011;8484;50.904;9.192;2022-07-12T11:47:10;0.40;;;0.20;;
16731;SDS011;8484;50.904;9.192;2022-07-12T11:49:37;0.10;;;0.00;;
16731;SDS011;8484;50.904;9.192;2022-07-12T11:52:07;0.10;;;0.10;;
16731;SDS011;8484;50.904;9.192;2022-07-12T11:54:36;0.30;;;0.10;;
16731;SDS011;8484;50.904;9.192;2022-07-12T11:57:06;1.17;;;0.10;;
16731;SDS011;8484;50.904;9.192;2022-07-12T11:59:34;0.20;;;0.20;;
16731;SDS011;8484;50.904;9.192;2022-07-12T12:02:02;0.27;;;0.20;;
16731;SDS011;8484;50.904;9.192;2022-07-12T12:04:29;0.63;;;0.20;;
16731;SDS011;8484;50.904;9.192;2022-07-12T12:06:56;0.27;;;0.20;;
16731;SDS011;8484;50.904;9.192;2022-07-12T12:09:22;0.53;;;0.20;;
16731;SDS011;8484;50.904;9.192;2022-07-12T12:11:51;0.10;;;0.10;;
16731;SDS011;8484;50.904;9.192;2022-07-12T12:14:18;0.50;;;0.10;;
16731;SDS011;8484;50.904;9.192;2022-07-12T12:16:45;0.60;;;0.13;;
16731;SDS011;8484;50.904;9.192;2022-07-12T12:19:12;0.10;;;0.10;;
16731;SDS011;8484;50.904;9.192;2022-07-12T12:21:38;0.13;;;0.10;;
16731;SDS011;8484;50.904;9.192;2022-07-12T12:24:08;1.50;;;0.10;;
16731;SDS011;8484;50.904;9.192;2022-07-12T12:26:36;0.00;;;0.00;;
16731;SDS011;8484;50.904;9.192;2022-07-12T12:29:04;0.00;;;0.00;;
16731;SDS011;8484;50.904;9.192;2022-07-12T12:31:31;0.20;;;0.10;;
16731;SDS011;8484;50.904;9.192;2022-07-12T12:33:58;2.10;;;0.30;;
16731;SDS011;8484;50.904;9.192;2022-07-12T12:36:26;0.07;;;0.00;;
16731;SDS011;8484;50.904;9.192;2022-07-12T12:38:54;0.60;;;0.10;;
16731;SDS011;8484;50.904;9.192;2022-07-12T12:41:22;0.40;;;0.10;;
16731;SDS011;8484;50.904;9.192;2022-07-12T12:43:56;0.30;;;0.20;;
16731;SDS011;8484;50.904;9.192;2022-07-12T12:49:18;0.83;;;0.17;;
16731;SDS011;8484;50.904;9.192;2022-07-12T12:51:52;0.10;;;0.07;;
16731;SDS011;8484;50.904;9.192;2022-07-12T12:54:32;2.00;;;0.20;;
16731;SDS011;8484;50.904;9.192;2022-07-12T12:56:59;0.17;;;0.10;;
16731;SDS011;8484;50.904;9.192;2022-07-12T12:59:26;0.00;;;0.00;;
16731;SDS011;8484;50.904;9.192;2022-07-12T13:01:54;0.50;;;0.17;;
16731;SDS011;8484;50.904;9.192;2022-07-12T13:04:21;0.10;;;0.10;;
16731;SDS011;8484;50.904;9.192;2022-07-12T13:06:48;0.00;;;0.00;;
16731;SDS011;8484;50.904;9.192;2022-07-12T13:09:15;0.10;;;0.10;;
16731;SDS011;8484;50.904;9.192;2022-07-12T13:11:42;0.10;;;0.10;;
16731;SDS011;8484;50.904;9.192;2022-07-12T13:14:09;0.17;;;0.10;;
16731;SDS011;8484;50.904;9.192;2022-07-12T13:16:35;0.30;;;0.10;;
16731;SDS011;8484;50.904;9.192;2022-07-12T13:19:04;0.83;;;0.17;;
16731;SDS011;8484;50.904;9.192;2022-07-12T13:21:32;0.40;;;0.20;;
16731;SDS011;8484;50.904;9.192;2022-07-12T13:23:59;2.67;;;0.13;;
16731;SDS011;8484;50.904;9.192;2022-07-12T13:26:26;0.50;;;0.20;;
16731;SDS011;8484;50.904;9.192;2022-07-12T13:28:53;0.10;;;0.10;;
16731;SDS011;8484;50.904;9.192;2022-07-12T13:31:20;0.50;;;0.10;;
16731;SDS011;8484;50.904;9.192;2022-07-12T13:33:47;0.30;;;0.10;;
16731;SDS011;8484;50.904;9.192;2022-07-12T13:36:15;0.30;;;0.10;;
16731;SDS011;8484;50.904;9.192;2022-07-12T13:38:42;0.17;;;0.10;;
16731;SDS011;8484;50.904;9.192;2022-07-12T13:41:09;0.20;;;0.20;;
16731;SDS011;8484;50.904;9.192;2022-07-12T13:43:36;0.13;;;0.10;;
16731;SDS011;8484;50.904;9.192;2022-07-12T13:46:03;0.20;;;0.10;;
16731;SDS011;8484;50.904;9.192;2022-07-12T13:48:30;0.20;;;0.20;;
16731;SDS011;8484;50.904;9.192;2022-07-12T13:50:58;0.10;;;0.10;;
16731;SDS011;8484;50.904;9.192;2022-07-12T13:53:26;0.20;;;0.20;;
16731;SDS011;8484;50.904;9.192;2022-07-12T13:55:53;0.53;;;0.20;;
16731;SDS011;8484;50.904;9.192;2022-07-12T13:58:20;0.27;;;0.20;;
16731;SDS011;8484;50.904;9.192;2022-07-12T14:00:47;1.67;;;0.20;;
16731;SDS011;8484;50.904;9.192;2022-07-12T14:03:14;0.10;;;0.10;;
16731;SDS011;8484;50.904;9.192;2022-07-12T14:05:41;1.90;;;0.20;;
16731;SDS011;8484;50.904;9.192;2022-07-12T14:08:07;0.33;;;0.10;;
16731;SDS011;8484;50.904;9.192;2022-07-12T14:10:36;0.33;;;0.10;;
16731;SDS011;8484;50.904;9.192;2022-07-12T14:13:03;0.13;;;0.10;;
16731;SDS011;8484;50.904;9.192;2022-07-12T14:15:31;0.10;;;0.10;;
16731;SDS011;8484;50.904;9.192;2022-07-12T14:18:04;0.10;;;0.10;;
16731;SDS011;8484;50.904;9.192;2022-07-12T14:20:32;0.10;;;0.10;;
16731;SDS011;8484;50.904;9.192;2022-07-12T14:23:01;0.30;;;0.20;;
16731;SDS011;8484;50.904;9.192;2022-07-12T14:25:31;0.10;;;0.10;;
16731;SDS011;8484;50.904;9.192;2022-07-12T14:27:59;0.00;;;0.00;;
16731;SDS011;8484;50.904;9.192;2022-07-12T14:30:26;0.10;;;0.10;;
16731;SDS011;8484;50.904;9.192;2022-07-12T14:32:53;1.40;;;0.10;;
16731;SDS011;8484;50.904;9.192;2022-07-12T14:35:19;2.40;;;0.17;;
16731;SDS011;8484;50.904;9.192;2022-07-12T14:37:53;0.27;;;0.17;;
16731;SDS011;8484;50.904;9.192;2022-07-12T14:40:20;0.00;;;0.00;;
16731;SDS011;8484;50.904;9.192;2022-07-12T14:42:47;0.50;;;0.17;;
16731;SDS011;8484;50.904;9.192;2022-07-12T14:45:15;0.30;;;0.20;;
16731;SDS011;8484;50.904;9.192;2022-07-12T14:47:42;0.23;;;0.20;;
16731;SDS011;8484;50.904;9.192;2022-07-12T14:50:08;0.10;;;0.10;;
16731;SDS011;8484;50.904;9.192;2022-07-12T14:52:36;0.33;;;0.13;;
16731;SDS011;8484;50.904;9.192;2022-07-12T14:55:04;2.40;;;0.20;;
16731;SDS011;8484;50.904;9.192;2022-07-12T14:57:31;0.10;;;0.10;;
16731;SDS011;8484;50.904;9.192;2022-07-12T14:59:58;2.40;;;0.10;;
16731;SDS011;8484;50.904;9.192;2022-07-12T15:02:26;0.10;;;0.10;;
16731;SDS011;8484;50.904;9.192;2022-07-12T15:04:53;0.10;;;0.10;;
16731;SDS011;8484;50.904;9.192;2022-07-12T15:07:20;0.13;;;0.13;;
16731;SDS011;8484;50.904;9.192;2022-07-12T15:09:47;0.33;;;0.17;;
16731;SDS011;8484;50.904;9.192;2022-07-12T15:12:14;0.43;;;0.10;;
16731;SDS011;8484;50.904;9.192;2022-07-12T15:14:41;0.53;;;0.20;;